Pilot Point, Texas
Current Conditions -  °F | °C
As of 11:53 AM on Tuesday 21 Oct 2014 (Local Time) from KDTO Reporting Station
Clear Clear  
Wind Chill: 24°   Ceiling: Unl
Heat Index: 24°   Visibility: 10mi
Dew Point: 15°   Wind: 0mph
Humidity: 57%   Direction: NA
Pressure: 30.1"   Gusts: NA
Location:  33.4°N, 96.96°W
Report Text: KDTO 211653Z 00000KT 10SM CLR 24/15 A3010 RMK AO2 SLP187 T02390150
Loading
Personal Weather Stations






























Interactive Weather Map
Tropical Storm Tracking
New forecast layout! Learn more

10-Day Weather Forecast

Advertisements
Track Severe Weather on mobile